sensor_id;sensor_type;location;lat;lon;timestamp;P1;P2;P0
77365;PMS5003;66430;50.182;11.704;2023-03-01T00:00:10;55;46;
77365;PMS5003;66430;50.182;11.704;2023-03-01T00:02:34;47;42;
77365;PMS5003;66430;50.182;11.704;2023-03-01T00:05:01;50;45;
77365;PMS5003;66430;50.182;11.704;2023-03-01T00:07:25;50;46;
77365;PMS5003;66430;50.182;11.704;2023-03-01T00:09:50;49;45;
77365;PMS5003;66430;50.182;11.704;2023-03-01T00:12:16;45;38;
77365;PMS5003;66430;50.182;11.704;2023-03-01T00:14:41;50;45;
77365;PMS5003;66430;50.182;11.704;2023-03-01T00:17:07;53;42;
77365;PMS5003;66430;50.182;11.704;2023-03-01T00:19:32;51;43;
77365;PMS5003;66430;50.182;11.704;2023-03-01T00:21:58;47;42;
77365;PMS5003;66430;50.182;11.704;2023-03-01T00:24:23;57;48;
77365;PMS5003;66430;50.182;11.704;2023-03-01T00:26:48;49;39;
77365;PMS5003;66430;50.182;11.704;2023-03-01T00:29:14;44;41;
77365;PMS5003;66430;50.182;11.704;2023-03-01T00:31:39;65;50;
77365;PMS5003;66430;50.182;11.704;2023-03-01T00:34:04;49;41;
77365;PMS5003;66430;50.182;11.704;2023-03-01T00:36:32;49;40;
77365;PMS5003;66430;50.182;11.704;2023-03-01T00:38:56;56;51;
77365;PMS5003;66430;50.182;11.704;2023-03-01T00:41:23;49;39;
77365;PMS5003;66430;50.182;11.704;2023-03-01T00:43:48;62;51;
77365;PMS5003;66430;50.182;11.704;2023-03-01T00:46:13;50;39;
77365;PMS5003;66430;50.182;11.704;2023-03-01T00:48:38;61;49;
77365;PMS5003;66430;50.182;11.704;2023-03-01T00:51:04;54;40;
77365;PMS5003;66430;50.182;11.704;2023-03-01T00:53:29;53;43;
77365;PMS5003;66430;50.182;11.704;2023-03-01T00:55:56;62;48;
77365;PMS5003;66430;50.182;11.704;2023-03-01T00:58:20;52;43;
77365;PMS5003;66430;50.182;11.704;2023-03-01T01:00:46;52;51;
77365;PMS5003;66430;50.182;11.704;2023-03-01T01:03:10;56;47;
77365;PMS5003;66430;50.182;11.704;2023-03-01T01:05:36;57;48;
77365;PMS5003;66430;50.182;11.704;2023-03-01T01:08:02;57;52;
77365;PMS5003;66430;50.182;11.704;2023-03-01T01:10:27;52;43;
77365;PMS5003;66430;50.182;11.704;2023-03-01T01:12:52;54;51;
77365;PMS5003;66430;50.182;11.704;2023-03-01T01:15:17;50;40;
77365;PMS5003;66430;50.182;11.704;2023-03-01T01:17:43;49;42;
77365;PMS5003;66430;50.182;11.704;2023-03-01T01:20:08;49;46;
77365;PMS5003;66430;50.182;11.704;2023-03-01T01:22:33;50;45;
77365;PMS5003;66430;50.182;11.704;2023-03-01T01:24:58;51;45;
77365;PMS5003;66430;50.182;11.704;2023-03-01T01:27:24;58;49;
77365;PMS5003;66430;50.182;11.704;2023-03-01T01:29:49;53;44;
77365;PMS5003;66430;50.182;11.704;2023-03-01T01:32:15;57;48;
77365;PMS5003;66430;50.182;11.704;2023-03-01T01:34:40;62;53;
77365;PMS5003;66430;50.182;11.704;2023-03-01T01:37:09;62;52;
77365;PMS5003;66430;50.182;11.704;2023-03-01T01:39:32;61;50;
77365;PMS5003;66430;50.182;11.704;2023-03-01T01:41:57;59;48;
77365;PMS5003;66430;50.182;11.704;2023-03-01T01:44:24;63;52;
77365;PMS5003;66430;50.182;11.704;2023-03-01T01:46:49;69;60;
77365;PMS5003;66430;50.182;11.704;2023-03-01T01:49:20;63;51;
77365;PMS5003;66430;50.182;11.704;2023-03-01T01:51:40;54;47;
77365;PMS5003;66430;50.182;11.704;2023-03-01T01:54:06;63;51;
77365;PMS5003;66430;50.182;11.704;2023-03-01T01:56:29;49;44;
77365;PMS5003;66430;50.182;11.704;2023-03-01T01:58:54;61;55;
77365;PMS5003;66430;50.182;11.704;2023-03-01T02:01:21;52;45;
77365;PMS5003;66430;50.182;11.704;2023-03-01T02:03:45;57;52;
77365;PMS5003;66430;50.182;11.704;2023-03-01T02:06:13;49;47;
77365;PMS5003;66430;50.182;11.704;2023-03-01T02:08:37;65;49;
77365;PMS5003;66430;50.182;11.704;2023-03-01T02:11:01;53;49;
77365;PMS5003;66430;50.182;11.704;2023-03-01T02:13:27;61;47;
77365;PMS5003;66430;50.182;11.704;2023-03-01T02:15:52;65;55;
77365;PMS5003;66430;50.182;11.704;2023-03-01T02:18:18;49;47;
77365;PMS5003;66430;50.182;11.704;2023-03-01T02:20:47;53;47;
77365;PMS5003;66430;50.182;11.704;2023-03-01T02:23:09;65;56;
77365;PMS5003;66430;50.182;11.704;2023-03-01T02:25:36;63;50;
77365;PMS5003;66430;50.182;11.704;2023-03-01T02:28:02;54;47;
77365;PMS5003;66430;50.182;11.704;2023-03-01T02:30:26;60;53;
77365;PMS5003;66430;50.182;11.704;2023-03-01T02:32:52;61;53;
77365;PMS5003;66430;50.182;11.704;2023-03-01T02:35:18;60;47;
77365;PMS5003;66430;50.182;11.704;2023-03-01T02:37:43;65;51;
77365;PMS5003;66430;50.182;11.704;2023-03-01T02:40:10;65;57;
77365;PMS5003;66430;50.182;11.704;2023-03-01T02:42:35;64;53;
77365;PMS5003;66430;50.182;11.704;2023-03-01T02:45:00;63;55;
77365;PMS5003;66430;50.182;11.704;2023-03-01T02:47:25;57;51;
77365;PMS5003;66430;50.182;11.704;2023-03-01T02:49:50;52;42;
77365;PMS5003;66430;50.182;11.704;2023-03-01T02:52:21;58;47;
77365;PMS5003;66430;50.182;11.704;2023-03-01T02:54:43;56;47;
77365;PMS5003;66430;50.182;11.704;2023-03-01T02:57:07;73;59;
77365;PMS5003;66430;50.182;11.704;2023-03-01T02:59:33;66;56;
77365;PMS5003;66430;50.182;11.704;2023-03-01T03:01:57;68;55;
77365;PMS5003;66430;50.182;11.704;2023-03-01T03:04:23;66;55;
77365;PMS5003;66430;50.182;11.704;2023-03-01T03:06:48;65;59;
77365;PMS5003;66430;50.182;11.704;2023-03-01T03:09:13;73;65;
77365;PMS5003;66430;50.182;11.704;2023-03-01T03:11:38;65;56;
77365;PMS5003;66430;50.182;11.704;2023-03-01T03:14:06;68;56;
77365;PMS5003;66430;50.182;11.704;2023-03-01T03:16:29;60;52;
77365;PMS5003;66430;50.182;11.704;2023-03-01T03:18:55;66;58;
77365;PMS5003;66430;50.182;11.704;2023-03-01T03:21:20;69;56;
77365;PMS5003;66430;50.182;11.704;2023-03-01T03:23:45;67;57;
77365;PMS5003;66430;50.182;11.704;2023-03-01T03:26:13;68;50;
77365;PMS5003;66430;50.182;11.704;2023-03-01T03:28:37;74;55;
77365;PMS5003;66430;50.182;11.704;2023-03-01T03:31:02;66;53;
77365;PMS5003;66430;50.182;11.704;2023-03-01T03:33:28;76;56;
77365;PMS5003;66430;50.182;11.704;2023-03-01T03:35:54;81;59;
77365;PMS5003;66430;50.182;11.704;2023-03-01T03:38:19;63;51;
77365;PMS5003;66430;50.182;11.704;2023-03-01T03:40:46;62;58;
77365;PMS5003;66430;50.182;11.704;2023-03-01T03:43:11;63;54;
77365;PMS5003;66430;50.182;11.704;2023-03-01T03:45:36;66;54;
77365;PMS5003;66430;50.182;11.704;2023-03-01T03:48:01;63;48;
77365;PMS5003;66430;50.182;11.704;2023-03-01T03:50:26;65;50;
77365;PMS5003;66430;50.182;11.704;2023-03-01T03:52:52;69;57;
77365;PMS5003;66430;50.182;11.704;2023-03-01T03:55:17;79;57;
77365;PMS5003;66430;50.182;11.704;2023-03-01T03:57:42;60;51;
77365;PMS5003;66430;50.182;11.704;2023-03-01T04:00:08;65;52;
77365;PMS5003;66430;50.182;11.704;2023-03-01T04:02:33;53;49;
77365;PMS5003;66430;50.182;11.704;2023-03-01T04:04:58;59;52;
77365;PMS5003;66430;50.182;11.704;2023-03-01T04:07:23;65;53;
77365;PMS5003;66430;50.182;11.704;2023-03-01T04:09:49;65;56;
77365;PMS5003;66430;50.182;11.704;2023-03-01T04:12:14;68;60;
77365;PMS5003;66430;50.182;11.704;2023-03-01T04:14:40;68;59;
77365;PMS5003;66430;50.182;11.704;2023-03-01T04:17:05;61;54;
77365;PMS5003;66430;50.182;11.704;2023-03-01T04:19:30;69;58;
77365;PMS5003;66430;50.182;11.704;2023-03-01T04:21:57;60;54;
77365;PMS5003;66430;50.182;11.704;2023-03-01T04:24:22;74;56;
77365;PMS5003;66430;50.182;11.704;2023-03-01T04:26:47;67;57;
77365;PMS5003;66430;50.182;11.704;2023-03-01T04:29:13;54;48;
77365;PMS5003;66430;50.182;11.704;2023-03-01T04:31:38;59;56;
77365;PMS5003;66430;50.182;11.704;2023-03-01T04:34:03;66;56;
77365;PMS5003;66430;50.182;11.704;2023-03-01T04:36:28;63;57;
77365;PMS5003;66430;50.182;11.704;2023-03-01T04:38:54;64;59;
77365;PMS5003;66430;50.182;11.704;2023-03-01T04:41:19;73;60;
77365;PMS5003;66430;50.182;11.704;2023-03-01T04:43:44;63;49;
77365;PMS5003;66430;50.182;11.704;2023-03-01T04:46:11;55;53;
77365;PMS5003;66430;50.182;11.704;2023-03-01T04:48:37;53;45;
77365;PMS5003;66430;50.182;11.704;2023-03-01T04:51:01;63;50;
77365;PMS5003;66430;50.182;11.704;2023-03-01T04:53:27;49;39;
77365;PMS5003;66430;50.182;11.704;2023-03-01T04:55:53;60;48;
77365;PMS5003;66430;50.182;11.704;2023-03-01T04:58:17;53;45;
77365;PMS5003;66430;50.182;11.704;2023-03-01T05:00:44;73;59;
77365;PMS5003;66430;50.182;11.704;2023-03-01T05:03:07;62;51;
77365;PMS5003;66430;50.182;11.704;2023-03-01T05:05:35;66;56;
77365;PMS5003;66430;50.182;11.704;2023-03-01T05:08:00;70;56;
77365;PMS5003;66430;50.182;11.704;2023-03-01T05:10:25;61;52;
77365;PMS5003;66430;50.182;11.704;2023-03-01T05:12:50;58;50;
77365;PMS5003;66430;50.182;11.704;2023-03-01T05:15:15;63;51;
77365;PMS5003;66430;50.182;11.704;2023-03-01T05:17:40;74;63;
77365;PMS5003;66430;50.182;11.704;2023-03-01T05:20:06;65;49;
77365;PMS5003;66430;50.182;11.704;2023-03-01T05:22:31;58;48;
77365;PMS5003;66430;50.182;11.704;2023-03-01T05:24:57;62;53;
77365;PMS5003;66430;50.182;11.704;2023-03-01T05:27:22;69;59;
77365;PMS5003;66430;50.182;11.704;2023-03-01T05:29:48;74;66;
77365;PMS5003;66430;50.182;11.704;2023-03-01T05:32:13;57;51;
77365;PMS5003;66430;50.182;11.704;2023-03-01T05:34:39;69;62;
77365;PMS5003;66430;50.182;11.704;2023-03-01T05:37:05;70;55;
77365;PMS5003;66430;50.182;11.704;2023-03-01T05:39:30;72;55;
77365;PMS5003;66430;50.182;11.704;2023-03-01T05:41:57;72;65;
77365;PMS5003;66430;50.182;11.704;2023-03-01T05:44:22;79;69;
77365;PMS5003;66430;50.182;11.704;2023-03-01T05:46:47;75;65;
77365;PMS5003;66430;50.182;11.704;2023-03-01T05:49:12;80;66;
77365;PMS5003;66430;50.182;11.704;2023-03-01T05:51:37;68;65;
77365;PMS5003;66430;50.182;11.704;2023-03-01T05:54:02;84;66;
77365;PMS5003;66430;50.182;11.704;2023-03-01T05:56:28;74;54;
77365;PMS5003;66430;50.182;11.704;2023-03-01T05:58:53;73;60;
77365;PMS5003;66430;50.182;11.704;2023-03-01T06:01:18;68;57;
77365;PMS5003;66430;50.182;11.704;2023-03-01T06:03:44;70;59;
77365;PMS5003;66430;50.182;11.704;2023-03-01T06:06:09;67;58;
77365;PMS5003;66430;50.182;11.704;2023-03-01T06:08:35;70;59;
77365;PMS5003;66430;50.182;11.704;2023-03-01T06:10:59;70;58;
77365;PMS5003;66430;50.182;11.704;2023-03-01T06:13:25;55;48;
77365;PMS5003;66430;50.182;11.704;2023-03-01T06:15:50;63;58;
77365;PMS5003;66430;50.182;11.704;2023-03-01T06:18:16;77;60;
77365;PMS5003;66430;50.182;11.704;2023-03-01T06:20:41;66;58;
77365;PMS5003;66430;50.182;11.704;2023-03-01T06:23:06;70;55;
77365;PMS5003;66430;50.182;11.704;2023-03-01T06:25:32;66;55;
77365;PMS5003;66430;50.182;11.704;2023-03-01T06:27:56;65;58;
77365;PMS5003;66430;50.182;11.704;2023-03-01T06:30:22;64;52;
77365;PMS5003;66430;50.182;11.704;2023-03-01T06:32:48;74;60;
77365;PMS5003;66430;50.182;11.704;2023-03-01T06:35:14;81;59;
77365;PMS5003;66430;50.182;11.704;2023-03-01T06:37:40;64;59;
77365;PMS5003;66430;50.182;11.704;2023-03-01T06:40:04;73;59;
77365;PMS5003;66430;50.182;11.704;2023-03-01T06:42:29;68;55;
77365;PMS5003;66430;50.182;11.704;2023-03-01T06:44:55;62;52;
77365;PMS5003;66430;50.182;11.704;2023-03-01T06:47:21;68;57;
77365;PMS5003;66430;50.182;11.704;2023-03-01T06:49:47;70;56;
77365;PMS5003;66430;50.182;11.704;2023-03-01T06:52:12;79;64;
77365;PMS5003;66430;50.182;11.704;2023-03-01T06:54:37;73;59;
77365;PMS5003;66430;50.182;11.704;2023-03-01T06:57:02;70;59;
77365;PMS5003;66430;50.182;11.704;2023-03-01T06:59:28;71;61;
77365;PMS5003;66430;50.182;11.704;2023-03-01T07:01:53;68;61;
77365;PMS5003;66430;50.182;11.704;2023-03-01T07:04:18;68;60;
77365;PMS5003;66430;50.182;11.704;2023-03-01T07:06:43;65;51;
77365;PMS5003;66430;50.182;11.704;2023-03-01T07:09:09;76;58;
77365;PMS5003;66430;50.182;11.704;2023-03-01T07:11:34;59;52;
77365;PMS5003;66430;50.182;11.704;2023-03-01T07:14:00;77;57;
77365;PMS5003;66430;50.182;11.704;2023-03-01T07:16:25;62;52;
77365;PMS5003;66430;50.182;11.704;2023-03-01T07:18:51;79;64;
77365;PMS5003;66430;50.182;11.704;2023-03-01T07:21:16;59;52;
77365;PMS5003;66430;50.182;11.704;2023-03-01T07:23:41;65;55;
77365;PMS5003;66430;50.182;11.704;2023-03-01T07:26:06;70;56;
77365;PMS5003;66430;50.182;11.704;2023-03-01T07:28:33;77;58;
77365;PMS5003;66430;50.182;11.704;2023-03-01T07:31:00;71;55;
77365;PMS5003;66430;50.182;11.704;2023-03-01T07:33:24;62;54;
77365;PMS5003;66430;50.182;11.704;2023-03-01T07:35:48;66;56;
77365;PMS5003;66430;50.182;11.704;2023-03-01T07:38:14;80;60;
77365;PMS5003;66430;50.182;11.704;2023-03-01T07:40:39;63;51;
77365;PMS5003;66430;50.182;11.704;2023-03-01T07:43:05;72;58;
77365;PMS5003;66430;50.182;11.704;2023-03-01T07:45:31;61;50;
77365;PMS5003;66430;50.182;11.704;2023-03-01T07:47:56;68;58;
77365;PMS5003;66430;50.182;11.704;2023-03-01T07:50:23;71;55;
77365;PMS5003;66430;50.182;11.704;2023-03-01T07:52:50;71;61;
77365;PMS5003;66430;50.182;11.704;2023-03-01T07:55:13;55;49;
77365;PMS5003;66430;50.182;11.704;2023-03-01T07:57:39;67;55;
77365;PMS5003;66430;50.182;11.704;2023-03-01T08:00:04;58;46;
77365;PMS5003;66430;50.182;11.704;2023-03-01T08:02:29;60;55;
77365;PMS5003;66430;50.182;11.704;2023-03-01T08:04:55;67;52;
77365;PMS5003;66430;50.182;11.704;2023-03-01T08:07:20;64;62;
77365;PMS5003;66430;50.182;11.704;2023-03-01T08:09:47;70;62;
77365;PMS5003;66430;50.182;11.704;2023-03-01T08:12:11;62;54;
77365;PMS5003;66430;50.182;11.704;2023-03-01T08:14:36;67;57;
77365;PMS5003;66430;50.182;11.704;2023-03-01T08:17:02;58;53;
77365;PMS5003;66430;50.182;11.704;2023-03-01T08:19:27;65;54;
77365;PMS5003;66430;50.182;11.704;2023-03-01T08:21:53;64;60;
77365;PMS5003;66430;50.182;11.704;2023-03-01T08:24:18;80;58;
77365;PMS5003;66430;50.182;11.704;2023-03-01T08:26:44;66;56;
77365;PMS5003;66430;50.182;11.704;2023-03-01T08:29:10;71;61;
77365;PMS5003;66430;50.182;11.704;2023-03-01T08:31:35;69;57;
77365;PMS5003;66430;50.182;11.704;2023-03-01T08:34:01;69;57;
77365;PMS5003;66430;50.182;11.704;2023-03-01T08:36:27;70;59;
77365;PMS5003;66430;50.182;11.704;2023-03-01T08:38:52;67;55;
77365;PMS5003;66430;50.182;11.704;2023-03-01T08:41:17;69;59;
77365;PMS5003;66430;50.182;11.704;2023-03-01T08:43:42;58;51;
77365;PMS5003;66430;50.182;11.704;2023-03-01T08:46:08;82;65;
77365;PMS5003;66430;50.182;11.704;2023-03-01T08:48:33;66;55;
77365;PMS5003;66430;50.182;11.704;2023-03-01T08:53:25;71;62;
77365;PMS5003;66430;50.182;11.704;2023-03-01T08:55:49;70;65;
77365;PMS5003;66430;50.182;11.704;2023-03-01T08:58:15;76;67;
77365;PMS5003;66430;50.182;11.704;2023-03-01T09:00:40;67;58;
77365;PMS5003;66430;50.182;11.704;2023-03-01T09:03:05;60;52;
77365;PMS5003;66430;50.182;11.704;2023-03-01T09:05:31;76;64;
77365;PMS5003;66430;50.182;11.704;2023-03-01T09:07:57;76;62;
77365;PMS5003;66430;50.182;11.704;2023-03-01T09:10:21;73;60;
77365;PMS5003;66430;50.182;11.704;2023-03-01T09:12:46;59;56;
77365;PMS5003;66430;50.182;11.704;2023-03-01T09:15:13;74;59;
77365;PMS5003;66430;50.182;11.704;2023-03-01T09:17:38;70;62;
77365;PMS5003;66430;50.182;11.704;2023-03-01T09:20:04;71;56;
77365;PMS5003;66430;50.182;11.704;2023-03-01T09:22:28;72;55;
77365;PMS5003;66430;50.182;11.704;2023-03-01T09:24:53;70;60;
77365;PMS5003;66430;50.182;11.704;2023-03-01T09:27:19;72;60;
77365;PMS5003;66430;50.182;11.704;2023-03-01T09:29:45;57;53;
77365;PMS5003;66430;50.182;11.704;2023-03-01T09:32:10;57;53;
77365;PMS5003;66430;50.182;11.704;2023-03-01T09:34:35;74;60;
77365;PMS5003;66430;50.182;11.704;2023-03-01T09:37:01;59;54;
77365;PMS5003;66430;50.182;11.704;2023-03-01T09:39:27;66;54;
77365;PMS5003;66430;50.182;11.704;2023-03-01T09:41:55;66;54;
77365;PMS5003;66430;50.182;11.704;2023-03-01T09:44:25;53;45;
77365;PMS5003;66430;50.182;11.704;2023-03-01T09:46:44;71;59;
77365;PMS5003;66430;50.182;11.704;2023-03-01T09:49:10;58;48;
77365;PMS5003;66430;50.182;11.704;2023-03-01T09:51:35;68;60;
77365;PMS5003;66430;50.182;11.704;2023-03-01T09:54:00;59;53;
77365;PMS5003;66430;50.182;11.704;2023-03-01T09:56:27;73;61;
77365;PMS5003;66430;50.182;11.704;2023-03-01T09:58:52;68;55;
77365;PMS5003;66430;50.182;11.704;2023-03-01T10:01:21;60;54;
77365;PMS5003;66430;50.182;11.704;2023-03-01T10:03:43;63;56;
77365;PMS5003;66430;50.182;11.704;2023-03-01T10:06:09;75;59;
77365;PMS5003;66430;50.182;11.704;2023-03-01T10:08:34;69;57;
77365;PMS5003;66430;50.182;11.704;2023-03-01T10:10:58;66;54;
77365;PMS5003;66430;50.182;11.704;2023-03-01T10:13:25;68;60;
77365;PMS5003;66430;50.182;11.704;2023-03-01T10:15:50;54;50;
77365;PMS5003;66430;50.182;11.704;2023-03-01T10:18:15;66;55;
77365;PMS5003;66430;50.182;11.704;2023-03-01T10:20:43;68;61;
77365;PMS5003;66430;50.182;11.704;2023-03-01T10:23:07;65;58;
77365;PMS5003;66430;50.182;11.704;2023-03-01T10:25:39;53;48;
77365;PMS5003;66430;50.182;11.704;2023-03-01T10:27:59;58;52;
77365;PMS5003;66430;50.182;11.704;2023-03-01T10:30:28;72;62;
77365;PMS5003;66430;50.182;11.704;2023-03-01T10:32:51;77;57;
77365;PMS5003;66430;50.182;11.704;2023-03-01T10:35:16;76;66;
77365;PMS5003;66430;50.182;11.704;2023-03-01T10:40:05;93;82;
77365;PMS5003;66430;50.182;11.704;2023-03-01T10:42:30;78;69;
77365;PMS5003;66430;50.182;11.704;2023-03-01T10:44:56;65;51;
77365;PMS5003;66430;50.182;11.704;2023-03-01T10:47:22;71;63;
77365;PMS5003;66430;50.182;11.704;2023-03-01T10:49:52;66;61;
77365;PMS5003;66430;50.182;11.704;2023-03-01T10:52:16;66;50;
77365;PMS5003;66430;50.182;11.704;2023-03-01T10:59:29;73;56;
77365;PMS5003;66430;50.182;11.704;2023-03-01T11:02:08;63;53;
77365;PMS5003;66430;50.182;11.704;2023-03-01T11:04:19;62;55;
77365;PMS5003;66430;50.182;11.704;2023-03-01T11:06:44;54;49;
77365;PMS5003;66430;50.182;11.704;2023-03-01T11:09:14;64;53;
77365;PMS5003;66430;50.182;11.704;2023-03-01T11:11:35;59;51;
77365;PMS5003;66430;50.182;11.704;2023-03-01T11:14:03;63;54;
77365;PMS5003;66430;50.182;11.704;2023-03-01T11:16:28;67;57;
77365;PMS5003;66430;50.182;11.704;2023-03-01T11:18:59;62;53;
77365;PMS5003;66430;50.182;11.704;2023-03-01T11:21:18;61;47;
77365;PMS5003;66430;50.182;11.704;2023-03-01T11:23:44;67;54;
77365;PMS5003;66430;50.182;11.704;2023-03-01T11:26:09;50;47;
77365;PMS5003;66430;50.182;11.704;2023-03-01T11:28:35;42;39;
77365;PMS5003;66430;50.182;11.704;2023-03-01T11:31:02;54;47;
77365;PMS5003;66430;50.182;11.704;2023-03-01T11:33:29;46;36;
77365;PMS5003;66430;50.182;11.704;2023-03-01T11:35:54;47;47;
77365;PMS5003;66430;50.182;11.704;2023-03-01T11:38:21;55;44;
77365;PMS5003;66430;50.182;11.704;2023-03-01T11:40:43;58;46;
77365;PMS5003;66430;50.182;11.704;2023-03-01T11:43:11;56;47;
77365;PMS5003;66430;50.182;11.704;2023-03-01T11:45:36;47;45;
77365;PMS5003;66430;50.182;11.704;2023-03-01T11:48:02;54;47;
77365;PMS5003;66430;50.182;11.704;2023-03-01T11:50:26;51;46;
77365;PMS5003;66430;50.182;11.704;2023-03-01T11:52:54;58;51;
77365;PMS5003;66430;50.182;11.704;2023-03-01T11:55:19;49;40;
77365;PMS5003;66430;50.182;11.704;2023-03-01T11:57:45;55;46;
77365;PMS5003;66430;50.182;11.704;2023-03-01T12:00:11;55;51;
77365;PMS5003;66430;50.182;11.704;2023-03-01T12:05:05;47;39;
77365;PMS5003;66430;50.182;11.704;2023-03-01T12:07:24;55;44;
77365;PMS5003;66430;50.182;11.704;2023-03-01T12:09:51;47;44;
77365;PMS5003;66430;50.182;11.704;2023-03-01T12:12:22;52;45;
77365;PMS5003;66430;50.182;11.704;2023-03-01T12:14:46;51;43;
77365;PMS5003;66430;50.182;11.704;2023-03-01T12:17:08;50;46;
77365;PMS5003;66430;50.182;11.704;2023-03-01T12:19:33;49;43;
77365;PMS5003;66430;50.182;11.704;2023-03-01T12:22:00;48;41;
77365;PMS5003;66430;50.182;11.704;2023-03-01T12:24:25;50;42;
77365;PMS5003;66430;50.182;11.704;2023-03-01T12:26:51;44;34;
77365;PMS5003;66430;50.182;11.704;2023-03-01T12:29:16;45;42;
77365;PMS5003;66430;50.182;11.704;2023-03-01T12:31:41;57;52;
77365;PMS5003;66430;50.182;11.704;2023-03-01T12:34:03;49;42;
77365;PMS5003;66430;50.182;11.704;2023-03-01T12:36:31;48;40;
77365;PMS5003;66430;50.182;11.704;2023-03-01T12:38:57;50;46;
77365;PMS5003;66430;50.182;11.704;2023-03-01T12:41:23;48;41;
77365;PMS5003;66430;50.182;11.704;2023-03-01T12:43:47;46;45;
77365;PMS5003;66430;50.182;11.704;2023-03-01T12:46:12;57;46;
77365;PMS5003;66430;50.182;11.704;2023-03-01T12:48:38;54;42;
77365;PMS5003;66430;50.182;11.704;2023-03-01T12:51:02;47;42;
77365;PMS5003;66430;50.182;11.704;2023-03-01T12:53:26;59;48;
77365;PMS5003;66430;50.182;11.704;2023-03-01T12:55:53;59;47;
77365;PMS5003;66430;50.182;11.704;2023-03-01T12:58:20;54;46;
77365;PMS5003;66430;50.182;11.704;2023-03-01T13:00:44;50;46;
77365;PMS5003;66430;50.182;11.704;2023-03-01T13:03:10;48;41;
77365;PMS5003;66430;50.182;11.704;2023-03-01T13:05:35;59;47;
77365;PMS5003;66430;50.182;11.704;2023-03-01T13:07:59;47;44;
77365;PMS5003;66430;50.182;11.704;2023-03-01T13:10:24;52;41;
77365;PMS5003;66430;50.182;11.704;2023-03-01T13:13:00;53;47;
77365;PMS5003;66430;50.182;11.704;2023-03-01T13:17:41;61;46;
77365;PMS5003;66430;50.182;11.704;2023-03-01T13:20:11;58;41;
77365;PMS5003;66430;50.182;11.704;2023-03-01T13:22:31;55;47;
77365;PMS5003;66430;50.182;11.704;2023-03-01T13:25:01;47;44;
77365;PMS5003;66430;50.182;11.704;2023-03-01T13:27:22;51;45;
77365;PMS5003;66430;50.182;11.704;2023-03-01T13:29:48;49;46;
77365;PMS5003;66430;50.182;11.704;2023-03-01T13:32:19;53;44;
77365;PMS5003;66430;50.182;11.704;2023-03-01T13:34:44;48;42;
77365;PMS5003;66430;50.182;11.704;2023-03-01T13:37:09;49;46;
77365;PMS5003;66430;50.182;11.704;2023-03-01T13:39:29;41;37;
77365;PMS5003;66430;50.182;11.704;2023-03-01T13:41:53;49;41;
77365;PMS5003;66430;50.182;11.704;2023-03-01T13:44:21;48;43;
77365;PMS5003;66430;50.182;11.704;2023-03-01T13:46:44;47;43;
77365;PMS5003;66430;50.182;11.704;2023-03-01T13:49:16;49;46;
77365;PMS5003;66430;50.182;11.704;2023-03-01T13:51:35;43;38;
77365;PMS5003;66430;50.182;11.704;2023-03-01T13:54:01;45;44;
77365;PMS5003;66430;50.182;11.704;2023-03-01T13:56:27;49;44;
77365;PMS5003;66430;50.182;11.704;2023-03-01T13:58:53;51;45;
77365;PMS5003;66430;50.182;11.704;2023-03-01T14:01:21;51;45;
77365;PMS5003;66430;50.182;11.704;2023-03-01T14:03:43;52;45;
77365;PMS5003;66430;50.182;11.704;2023-03-01T14:06:12;53;43;
77365;PMS5003;66430;50.182;11.704;2023-03-01T14:08:35;46;44;
77365;PMS5003;66430;50.182;11.704;2023-03-01T14:13:28;60;52;
77365;PMS5003;66430;50.182;11.704;2023-03-01T14:15:56;58;48;
77365;PMS5003;66430;50.182;11.704;2023-03-01T14:18:17;53;45;
77365;PMS5003;66430;50.182;11.704;2023-03-01T14:20:41;51;46;
77365;PMS5003;66430;50.182;11.704;2023-03-01T14:23:09;55;51;
77365;PMS5003;66430;50.182;11.704;2023-03-01T14:25:31;55;51;
77365;PMS5003;66430;50.182;11.704;2023-03-01T14:27:59;57;53;
77365;PMS5003;66430;50.182;11.704;2023-03-01T14:30:22;60;54;
77365;PMS5003;66430;50.182;11.704;2023-03-01T14:32:52;69;58;
77365;PMS5003;66430;50.182;11.704;2023-03-01T14:37:39;71;56;
77365;PMS5003;66430;50.182;11.704;2023-03-01T14:40:04;74;59;
77365;PMS5003;66430;50.182;11.704;2023-03-01T14:42:31;70;64;
77365;PMS5003;66430;50.182;11.704;2023-03-01T14:44:55;62;60;
77365;PMS5003;66430;50.182;11.704;2023-03-01T14:47:23;70;63;
77365;PMS5003;66430;50.182;11.704;2023-03-01T14:49:45;70;63;
77365;PMS5003;66430;50.182;11.704;2023-03-01T14:54:40;68;62;
77365;PMS5003;66430;50.182;11.704;2023-03-01T14:57:02;77;62;
77365;PMS5003;66430;50.182;11.704;2023-03-01T14:59:27;62;55;
77365;PMS5003;66430;50.182;11.704;2023-03-01T15:01:53;65;53;
77365;PMS5003;66430;50.182;11.704;2023-03-01T15:04:17;70;61;
77365;PMS5003;66430;50.182;11.704;2023-03-01T15:06:43;72;65;
77365;PMS5003;66430;50.182;11.704;2023-03-01T15:09:12;64;55;
77365;PMS5003;66430;50.182;11.704;2023-03-01T15:11:34;80;67;
77365;PMS5003;66430;50.182;11.704;2023-03-01T15:13:59;70;64;
77365;PMS5003;66430;50.182;11.704;2023-03-01T15:16:25;67;57;
77365;PMS5003;66430;50.182;11.704;2023-03-01T15:18:52;72;58;
77365;PMS5003;66430;50.182;11.704;2023-03-01T15:21:17;74;66;
77365;PMS5003;66430;50.182;11.704;2023-03-01T15:23:47;66;61;
77365;PMS5003;66430;50.182;11.704;2023-03-01T15:28:33;77;67;
77365;PMS5003;66430;50.182;11.704;2023-03-01T15:31:00;69;59;
77365;PMS5003;66430;50.182;11.704;2023-03-01T15:33:30;66;59;
77365;PMS5003;66430;50.182;11.704;2023-03-01T15:35:50;64;60;
77365;PMS5003;66430;50.182;11.704;2023-03-01T15:40:48;59;54;
77365;PMS5003;66430;50.182;11.704;2023-03-01T15:43:14;77;64;
77365;PMS5003;66430;50.182;11.704;2023-03-01T15:45:32;60;54;
77365;PMS5003;66430;50.182;11.704;2023-03-01T15:48:00;66;57;
77365;PMS5003;66430;50.182;11.704;2023-03-01T15:50:25;72;66;
77365;PMS5003;66430;50.182;11.704;2023-03-01T15:52:49;68;59;
77365;PMS5003;66430;50.182;11.704;2023-03-01T15:55:16;66;59;
77365;PMS5003;66430;50.182;11.704;2023-03-01T15:57:41;61;55;
77365;PMS5003;66430;50.182;11.704;2023-03-01T16:00:08;77;68;
77365;PMS5003;66430;50.182;11.704;2023-03-01T16:02:31;63;58;
77365;PMS5003;66430;50.182;11.704;2023-03-01T16:04:57;55;53;
77365;PMS5003;66430;50.182;11.704;2023-03-01T16:07:22;68;64;
77365;PMS5003;66430;50.182;11.704;2023-03-01T16:09:48;69;55;
77365;PMS5003;66430;50.182;11.704;2023-03-01T16:12:14;72;64;
77365;PMS5003;66430;50.182;11.704;2023-03-01T16:14:39;70;60;